HESN

Aswan International Airport

Aswan, Egypt
METAR HESN 131000Z 02007KT CAVOK 21/05 Q1021 NOSIG
Observed Flight Rules
Dec-13 @ 10:00 UTC (2 hours ago) Visual Flight Rules
Wind Visibility Clouds
20° at 7 knots 10,000+ meters
  • Clear skies
Temperatures Readings
Current 21°C / 70°F
Dewpoint 5°C / 41°F
Humidity 35%
Altimeter 30.15" Hg
Pressure 1021 hPa
Elevation 194
METAR HESN 131000Z 02007KT CAVOK 21/05 Q1021 NOSIG
Observed Flight Rules
Dec-13 @ 10:00 UTC
(2 hours ago)
VFR
Wind Visibility
20° at 7 knots 10,000+ meters
Clouds
  • Clear skies
Temperature Dewpoint
21°C / 70°F 5°C / 41°F
Humidity Altimeter Pressure
35% 30.15" Hg 1021 hPa